KMCF/MCF METAR and TAF weather

Enter ICAO airport designator
Station Type Date Time Source
KMCF METAR 2020/09/18 07:56 UTC NOAA

KMCF 180756Z AUTO 24003KT 10SM -DZ BKN020 BKN026 OVC040 27/25 A2985 RMK AO2 RAB28E43DZB43E44RAB44E45DZB48 CIG 020V040 BKN020 V FEW SLP111 P0005 T02650251 FZRANO $


Station Type Date Time Source
KMCF Decoded METAR 2020/09/18 07:56 UTC NOAA

Macdill Air Force Base, Fl., FL, United States (KMCF) 27-51N 082-30W 4M
Sep 18, 2020 - 03:56 AM EDT / 2020.09.18 0756 UTC
Wind: from the WSW (240 degrees) at 3 MPH (3 KT):0
Visibility: 10 mile(s):0
Sky conditions: overcast
Weather: light drizzle
Precipitation last hour: 0.05 inches
Temperature: 79.7 F (26.5 C)
Dew Point: 77.2 F (25.1 C)
Relative Humidity: 92%
Pressure (altimeter): 29.85 in. Hg (1010 hPa)
ob: KMCF 180756Z AUTO 24003KT 10SM -DZ BKN020 BKN026 OVC040 27/25 A2985 RMK AO2 RAB28E43DZB43E44RAB44E45DZB48 CIG 020V040 BKN020 V FEW SLP111 P0005 T02650251 FZRANO
cycle: 8

Station Type Date Time Source
KMCF TAF 2020/09/17 17:06 UTC NOAA

TAF TAF KMCF 171700Z 1717/1823 21012G18KT 9000 -SHRA VCTS FEW015 SCT030CB QNH2987INS
TEMPO 1718/1720 VRB25G35KT 3200 -TSRA SCT010 BKN025CB
BECMG 1721/1722 22012KT 9000 -SHRA SCT025 BKN050 QNH2983INS
BECMG 1801/1802 23009KT 9999 VCSH FEW030 QNH2984INS
BECMG 1815/1816 27012KT 9000 -SHRA VCTS SCT025CB QNH2985INS
TEMPO 1818/1821 VRB15G25KT 8000 -TSRA BKN025CB OVC040 TX31/1817Z TN26/1811Z

Example: see airport list